Time;durP1;ratioP1;P1;durP2;ratioP2;P2;SDS_P1;SDS_P2;PMS_P1;PMS_P2;Temp;Humidity;BMP_temperature;BMP_pressure;BME280_temperature;BME280_humidity;BME280_pressure;Samples;Min_cycle;Max_cycle;Signal;HPM_P1;HPM_P2
2022/08/07 00:00:59;;;;;;;5.93;2.97;;;16.40;99.90;;;;;;5092172;28;20369;-60
2022/08/07 00:03:25;;;;;;;4.80;2.80;;;16.40;99.90;;;;;;5093412;28;20028;-60
2022/08/07 00:05:52;;;;;;;4.20;3.10;;;16.30;99.90;;;;;;5093223;28;20028;-60
2022/08/07 00:08:18;;;;;;;7.60;2.95;;;16.30;99.90;;;;;;5093463;28;20026;-60
2022/08/07 00:10:44;;;;;;;3.60;3.28;;;16.30;99.90;;;;;;5093248;28;20073;-59
2022/08/07 00:13:10;;;;;;;4.38;3.03;;;16.30;99.90;;;;;;5093013;28;20036;-60
2022/08/07 00:15:36;;;;;;;6.85;2.90;;;16.30;99.90;;;;;;5093447;28;20054;-61
2022/08/07 00:18:02;;;;;;;7.25;3.63;;;16.30;99.90;;;;;;5093394;28;20028;-61
2022/08/07 00:20:28;;;;;;;6.28;3.15;;;16.30;99.90;;;;;;5092917;28;20484;-61
2022/08/07 00:22:54;;;;;;;7.43;3.13;;;16.20;99.90;;;;;;5093072;28;20039;-61
2022/08/07 00:25:19;;;;;;;7.22;3.42;;;16.20;99.90;;;;;;5092696;28;20495;-61
2022/08/07 00:27:45;;;;;;;11.07;4.10;;;16.20;99.90;;;;;;5093127;28;20024;-61
2022/08/07 00:30:11;;;;;;;7.93;3.80;;;16.20;99.90;;;;;;5092942;28;20056;-61
2022/08/07 00:32:37;;;;;;;6.05;3.53;;;16.20;99.90;;;;;;5092571;28;20020;-61
2022/08/07 00:35:03;;;;;;;7.43;3.67;;;16.20;99.90;;;;;;5092640;28;20255;-61
2022/08/07 00:37:28;;;;;;;7.40;3.88;;;16.20;99.90;;;;;;5091364;28;20028;-60
2022/08/07 00:39:54;;;;;;;4.72;3.78;;;16.30;99.90;;;;;;5092941;28;20099;-61
2022/08/07 00:42:20;;;;;;;7.40;3.65;;;16.30;99.90;;;;;;5093084;28;20388;-62
2022/08/07 00:44:46;;;;;;;5.97;3.88;;;16.20;99.90;;;;;;5091730;28;20471;-60
2022/08/07 00:47:12;;;;;;;6.65;3.65;;;16.10;99.90;;;;;;5092585;28;20063;-61
2022/08/07 00:49:38;;;;;;;5.80;4.22;;;16.10;99.90;;;;;;5092674;28;20020;-60
2022/08/07 00:52:08;;;;;;;7.00;4.40;;;16.20;99.90;;;;;;5092601;28;20031;-60
2022/08/07 00:54:33;;;;;;;5.80;4.13;;;16.10;99.90;;;;;;5092401;28;20073;-61
2022/08/07 00:57:00;;;;;;;7.57;4.50;;;16.00;99.90;;;;;;5092690;28;20499;-60
2022/08/07 00:59:25;;;;;;;6.18;4.22;;;15.80;99.90;;;;;;5092187;28;20055;-60
2022/08/07 01:01:51;;;;;;;6.45;4.60;;;15.70;99.90;;;;;;5092333;28;20020;-61
2022/08/07 01:04:17;;;;;;;6.65;3.83;;;15.70;99.90;;;;;;5092087;28;20032;-61
2022/08/07 01:06:46;;;;;;;7.90;4.47;;;15.60;99.90;;;;;;5092102;28;20036;-61
2022/08/07 01:09:12;;;;;;;10.63;4.70;;;15.60;99.90;;;;;;5092258;28;20054;-61
2022/08/07 01:11:39;;;;;;;5.25;4.75;;;15.60;99.90;;;;;;5091928;28;20055;-61
2022/08/07 01:14:07;;;;;;;8.10;4.85;;;15.60;99.90;;;;;;5092241;28;20069;-61
2022/08/07 01:16:33;;;;;;;10.50;4.55;;;15.40;99.90;;;;;;5091941;28;20081;-61
2022/08/07 01:18:58;;;;;;;6.80;4.70;;;15.30;99.90;;;;;;5092194;28;20032;-61
2022/08/07 01:21:25;;;;;;;9.15;5.20;;;15.30;99.90;;;;;;5073773;28;20028;-61
2022/08/07 01:23:52;;;;;;;7.07;5.28;;;15.40;99.90;;;;;;5090540;28;20024;-61
2022/08/07 01:26:20;;;;;;;8.85;5.22;;;15.50;99.90;;;;;;5091801;28;20575;-61
2022/08/07 01:28:48;;;;;;;7.63;4.95;;;15.50;99.90;;;;;;5091886;28;20019;-61
2022/08/07 01:31:15;;;;;;;8.50;5.47;;;15.50;99.90;;;;;;5091882;28;20032;-60
2022/08/07 01:33:41;;;;;;;6.63;4.78;;;15.30;99.90;;;;;;5091463;28;20077;-60
2022/08/07 01:36:10;;;;;;;6.70;5.15;;;15.10;99.90;;;;;;5091670;28;20059;-61
2022/08/07 01:38:37;;;;;;;5.88;4.90;;;14.80;99.90;;;;;;5092365;28;20024;-61
2022/08/07 01:41:04;;;;;;;8.90;5.13;;;14.80;99.90;;;;;;5091409;28;20119;-60
2022/08/07 01:43:30;;;;;;;6.95;5.18;;;14.80;99.90;;;;;;5091365;28;20024;-61
2022/08/07 01:45:57;;;;;;;6.95;5.22;;;14.70;99.90;;;;;;5091262;28;20161;-61
2022/08/07 01:48:23;;;;;;;7.95;5.82;;;14.70;99.90;;;;;;5091291;28;20115;-61
2022/08/07 01:50:57;;;;;;;9.07;5.80;;;14.60;99.90;;;;;;5091188;28;20465;-61
2022/08/07 01:53:25;;;;;;;8.48;5.88;;;14.70;99.90;;;;;;5091779;28;20037;-60
2022/08/07 01:55:59;;;;;;;9.65;6.90;;;14.70;99.90;;;;;;5091186;28;20485;-61
2022/08/07 01:58:31;;;;;;;10.35;6.88;;;14.60;99.90;;;;;;5090067;28;20020;-61
2022/08/07 02:01:03;;;;;;;10.77;7.43;;;14.60;99.90;;;;;;5091072;28;20081;-60
2022/08/07 02:03:33;;;;;;;8.23;6.97;;;14.70;99.90;;;;;;5091123;28;20024;-61
2022/08/07 02:06:05;;;;;;;11.80;6.65;;;14.70;99.90;;;;;;5091224;28;20035;-61
2022/08/07 02:08:37;;;;;;;8.82;6.55;;;14.70;99.90;;;;;;5091424;28;20493;-61
2022/08/07 02:11:04;;;;;;;9.90;6.85;;;14.70;99.90;;;;;;5089989;28;20362;-60
2022/08/07 02:13:32;;;;;;;9.65;6.40;;;14.80;99.90;;;;;;5089627;28;20047;-61
2022/08/07 02:16:01;;;;;;;8.38;6.80;;;14.80;99.90;;;;;;5090871;28;20410;-60
2022/08/07 02:18:30;;;;;;;11.15;6.63;;;15.20;99.90;;;;;;5091107;28;20483;-61
2022/08/07 02:20:58;;;;;;;7.57;6.85;;;15.30;99.90;;;;;;5091757;28;20036;-60
2022/08/07 02:23:25;;;;;;;12.48;7.70;;;15.20;99.90;;;;;;5097727;28;20063;-60
2022/08/07 02:25:53;;;;;;;9.80;6.95;;;15.20;99.90;;;;;;5097449;28;20168;-61
2022/08/07 02:28:20;;;;;;;10.77;8.07;;;15.10;99.90;;;;;;5097778;28;20016;-60
2022/08/07 02:30:48;;;;;;;11.82;7.75;;;15.10;99.90;;;;;;5097665;28;20095;-60
2022/08/07 02:33:17;;;;;;;9.13;7.00;;;15.10;99.90;;;;;;5097640;28;20480;-61
2022/08/07 02:35:45;;;;;;;8.75;7.10;;;15.10;99.90;;;;;;5097451;28;20036;-61
2022/08/07 02:38:13;;;;;;;13.57;7.10;;;15.00;99.90;;;;;;5098100;28;20540;-60
2022/08/07 02:40:39;;;;;;;11.45;7.05;;;15.10;99.90;;;;;;5097956;28;20051;-60
2022/08/07 02:43:06;;;;;;;8.68;7.07;;;15.10;99.90;;;;;;5097462;28;20418;-66
2022/08/07 02:45:33;;;;;;;11.15;6.60;;;15.00;99.90;;;;;;5097459;28;20097;-61
2022/08/07 02:47:59;;;;;;;10.68;6.90;;;15.00;99.90;;;;;;5097557;28;20103;-61
2022/08/07 02:50:25;;;;;;;10.30;6.75;;;15.00;99.90;;;;;;5097356;28;20099;-60
2022/08/07 02:53:00;;;;;;;8.98;6.50;;;14.90;99.90;;;;;;5097445;28;20024;-61
2022/08/07 02:55:27;;;;;;;10.02;6.95;;;14.90;99.90;;;;;;5097505;28;20024;-61
2022/08/07 02:57:57;;;;;;;9.68;7.00;;;14.90;99.90;;;;;;5097689;28;20027;-60
2022/08/07 03:00:24;;;;;;;10.25;6.68;;;14.80;99.90;;;;;;5097167;28;20089;-59
2022/08/07 03:02:51;;;;;;;11.18;7.72;;;14.80;99.90;;;;;;5096340;28;20027;-60
2022/08/07 03:05:18;;;;;;;10.25;7.25;;;14.80;99.90;;;;;;5097168;28;20449;-60
2022/08/07 03:07:46;;;;;;;10.38;8.32;;;14.70;99.90;;;;;;5097679;28;20397;-59
2022/08/07 03:10:13;;;;;;;10.55;8.63;;;14.60;99.90;;;;;;5097393;28;20048;-60
2022/08/07 03:12:40;;;;;;;11.02;8.32;;;14.60;99.90;;;;;;5097628;28;20388;-60
2022/08/07 03:15:07;;;;;;;12.43;9.02;;;14.50;99.90;;;;;;5097319;28;20035;-60
2022/08/07 03:17:34;;;;;;;11.25;9.52;;;14.50;99.90;;;;;;5097165;28;20578;-60
2022/08/07 03:20:00;;;;;;;10.77;9.68;;;14.60;99.90;;;;;;5097404;28;20361;-60
2022/08/07 03:22:28;;;;;;;13.90;9.88;;;14.50;99.90;;;;;;5097032;28;20032;-59
2022/08/07 03:24:55;;;;;;;16.38;10.90;;;14.60;99.90;;;;;;5097065;28;20070;-60
2022/08/07 03:27:21;;;;;;;16.83;11.70;;;14.60;99.90;;;;;;5097160;28;20053;-60
2022/08/07 03:29:51;;;;;;;14.77;11.48;;;14.60;99.90;;;;;;5097271;28;20430;-60
2022/08/07 03:32:38;;;;;;;14.98;11.88;;;14.60;99.90;;;;;;5096638;28;20028;-60
2022/08/07 03:35:08;;;;;;;16.92;12.40;;;14.60;99.90;;;;;;5093563;28;20060;-60
2022/08/07 03:37:36;;;;;;;13.98;11.73;;;14.60;99.90;;;;;;5094362;28;20443;-59
2022/08/07 03:40:03;;;;;;;17.67;12.77;;;14.60;99.90;;;;;;5094302;28;20435;-59
2022/08/07 03:42:32;;;;;;;16.75;12.82;;;14.60;99.90;;;;;;5093696;28;20028;-60
2022/08/07 03:44:58;;;;;;;14.15;12.60;;;14.60;99.90;;;;;;5093796;28;20512;-60
2022/08/07 03:47:27;;;;;;;16.67;12.93;;;14.60;99.90;;;;;;5093466;28;20484;-60
2022/08/07 03:49:55;;;;;;;18.40;12.57;;;14.50;99.90;;;;;;5093982;28;20165;-60
2022/08/07 03:52:22;;;;;;;15.00;12.10;;;14.50;99.90;;;;;;5093991;28;20519;-60
2022/08/07 03:54:48;;;;;;;18.05;12.90;;;14.40;99.90;;;;;;5092027;28;20016;-59
2022/08/07 03:57:15;;;;;;;17.02;13.55;;;14.40;99.90;;;;;;5094002;28;20032;-60
2022/08/07 03:59:41;;;;;;;15.93;13.30;;;14.40;99.90;;;;;;5093491;28;20036;-60
2022/08/07 04:02:07;;;;;;;16.33;13.55;;;14.40;99.90;;;;;;5093331;28;20031;-61
2022/08/07 04:04:33;;;;;;;17.63;14.55;;;14.50;99.90;;;;;;5093277;28;20020;-60
2022/08/07 04:06:59;;;;;;;19.30;15.00;;;14.50;99.90;;;;;;5093203;28;20034;-60
2022/08/07 04:09:26;;;;;;;17.08;14.57;;;14.50;99.90;;;;;;5093325;28;20528;-60
2022/08/07 04:11:53;;;;;;;16.65;14.95;;;14.40;99.90;;;;;;5093277;28;20401;-60
2022/08/07 04:14:19;;;;;;;17.23;14.90;;;14.40;99.90;;;;;;5093135;28;20020;-60
2022/08/07 04:16:48;;;;;;;19.52;14.95;;;14.40;99.90;;;;;;5093086;28;20032;-60
2022/08/07 04:19:14;;;;;;;21.00;15.48;;;14.40;99.90;;;;;;5093242;28;20028;-60
2022/08/07 04:21:40;;;;;;;19.95;14.75;;;14.40;99.90;;;;;;5093016;28;20071;-60
2022/08/07 04:24:09;;;;;;;15.73;13.18;;;14.50;99.90;;;;;;5092967;28;20051;-60
2022/08/07 04:26:37;;;;;;;24.42;13.38;;;14.50;99.90;;;;;;5091590;28;20373;-60
2022/08/07 04:29:05;;;;;;;17.52;12.50;;;14.50;99.90;;;;;;5093075;28;20046;-60
2022/08/07 04:31:31;;;;;;;13.38;11.98;;;14.50;99.90;;;;;;5091484;28;20028;-60
2022/08/07 04:33:58;;;;;;;16.40;13.00;;;14.60;99.90;;;;;;5093147;28;20024;-60
2022/08/07 04:36:23;;;;;;;15.38;12.32;;;14.60;99.90;;;;;;5092508;28;20073;-60
2022/08/07 04:38:50;;;;;;;14.63;12.85;;;14.50;99.90;;;;;;5092921;28;20392;-60
2022/08/07 04:41:15;;;;;;;14.82;12.65;;;14.50;99.90;;;;;;5092780;28;20039;-60
2022/08/07 04:43:43;;;;;;;20.13;14.05;;;14.60;99.90;;;;;;5092369;28;20396;-60
2022/08/07 04:46:14;;;;;;;16.38;13.07;;;14.50;99.90;;;;;;5091408;28;20032;-60
2022/08/07 04:49:05;;;;;;;17.60;12.93;;;14.50;99.90;;;;;;5091462;28;20023;-60
2022/08/07 04:51:43;;;;;;;17.73;12.82;;;14.50;99.90;;;;;;5092235;28;20029;-61
2022/08/07 04:54:29;;;;;;;16.40;13.52;;;14.60;99.90;;;;;;5092485;28;20055;-60
2022/08/07 04:57:12;;;;;;;17.45;12.63;;;14.70;99.90;;;;;;5092303;28;20036;-60
2022/08/07 05:00:04;;;;;;;16.13;12.88;;;14.60;99.90;;;;;;5092567;28;20047;-60
2022/08/07 05:02:40;;;;;;;17.60;13.98;;;14.60;99.90;;;;;;5092215;28;20392;-60
2022/08/07 05:05:09;;;;;;;16.70;13.65;;;14.80;99.90;;;;;;5092098;28;20024;-60
2022/08/07 05:07:49;;;;;;;17.27;13.50;;;14.90;99.90;;;;;;5092461;28;20153;-61
2022/08/07 05:10:25;;;;;;;18.30;13.25;;;14.70;99.90;;;;;;5092380;28;20089;-61
2022/08/07 05:13:25;;;;;;;18.17;11.85;;;14.70;99.90;;;;;;5092407;28;20032;-61
2022/08/07 05:15:52;;;;;;;15.73;11.85;;;14.70;99.90;;;;;;5088085;28;20059;-61
2022/08/07 05:18:34;;;;;;;15.85;12.45;;;14.70;99.90;;;;;;5090972;28;20392;-61
2022/08/07 05:21:03;;;;;;;13.80;12.00;;;14.70;99.90;;;;;;5091809;28;20039;-61
2022/08/07 05:23:46;;;;;;;16.17;11.98;;;14.80;99.90;;;;;;5092155;28;20301;-61
2022/08/07 05:26:13;;;;;;;;;;;14.90;99.90;;;;;;5092465;28;20081;-60
2022/08/07 05:28:39;;;;;;;14.82;10.98;;;14.90;99.90;;;;;;5092158;28;20342;-61
2022/08/07 05:31:06;;;;;;;13.75;11.32;;;15.00;99.90;;;;;;5092482;28;20059;-61
2022/08/07 05:33:34;;;;;;;14.10;11.57;;;15.10;99.90;;;;;;5091619;28;20020;-61
2022/08/07 05:36:00;;;;;;;12.00;10.70;;;15.20;99.90;;;;;;5091902;28;20038;-61
2022/08/07 05:38:27;;;;;;;14.90;11.55;;;15.20;99.90;;;;;;5092257;28;20028;-60
2022/08/07 05:40:54;;;;;;;14.23;11.40;;;15.20;99.90;;;;;;5091961;28;20039;-61
2022/08/07 05:43:19;;;;;;;14.75;11.65;;;15.30;99.90;;;;;;5090313;28;20498;-61
2022/08/07 05:45:47;;;;;;;13.40;10.75;;;15.40;99.90;;;;;;5091336;28;20144;-61
2022/08/07 05:48:13;;;;;;;11.98;10.35;;;15.50;99.90;;;;;;5091604;28;20469;-61
2022/08/07 05:50:40;;;;;;;12.77;9.95;;;15.60;99.90;;;;;;5091209;28;20032;-61
2022/08/07 05:53:06;;;;;;;21.15;10.60;;;15.60;99.90;;;;;;5091386;28;20020;-60
2022/08/07 05:55:34;;;;;;;13.15;10.40;;;15.80;99.90;;;;;;5091181;28;20694;-60
2022/08/07 05:58:01;;;;;;;12.55;9.95;;;15.90;99.90;;;;;;5091149;28;20499;-60
2022/08/07 06:00:28;;;;;;;11.88;9.57;;;16.00;99.90;;;;;;5090885;28;20059;-61
2022/08/07 06:02:56;;;;;;;12.77;9.63;;;16.10;99.90;;;;;;5091361;28;20058;-60
2022/08/07 06:05:27;;;;;;;14.27;9.55;;;16.20;99.90;;;;;;5091237;28;20396;-60
2022/08/07 06:07:54;;;;;;;10.77;9.32;;;16.20;99.90;;;;;;5091784;28;20024;-60
2022/08/07 06:10:20;;;;;;;10.32;8.98;;;16.40;99.90;;;;;;5091358;28;20032;-60
2022/08/07 06:12:46;;;;;;;11.18;8.88;;;16.40;99.90;;;;;;5091221;28;20024;-60
2022/08/07 06:15:14;;;;;;;12.23;8.45;;;16.50;99.90;;;;;;5091010;28;20392;-60
2022/08/07 06:17:41;;;;;;;9.85;8.27;;;16.60;99.90;;;;;;5091228;28;20238;-60
2022/08/07 06:20:09;;;;;;;14.18;8.70;;;16.60;99.90;;;;;;5091283;28;20480;-60
2022/08/07 06:22:36;;;;;;;10.32;8.05;;;16.70;99.90;;;;;;5091266;28;20032;-60
2022/08/07 06:25:02;;;;;;;12.70;8.07;;;16.80;99.90;;;;;;5090930;28;20027;-60
2022/08/07 06:27:27;;;;;;;12.23;7.85;;;17.00;99.90;;;;;;5090881;28;20024;-60
2022/08/07 06:29:53;;;;;;;9.77;8.55;;;17.10;99.90;;;;;;5089887;28;20477;-60
2022/08/07 06:32:19;;;;;;;12.05;8.45;;;17.30;99.90;;;;;;5091032;28;20397;-60
2022/08/07 06:34:44;;;;;;;12.80;7.85;;;17.60;99.90;;;;;;5090722;28;20028;-60
2022/08/07 06:37:10;;;;;;;11.00;8.20;;;17.80;99.90;;;;;;5090813;28;20032;-60
2022/08/07 06:39:37;;;;;;;10.50;8.05;;;17.80;99.90;;;;;;5090927;28;20540;-60
2022/08/07 06:42:16;;;;;;;10.02;8.10;;;17.90;99.90;;;;;;5090599;28;20050;-60
2022/08/07 06:44:45;;;;;;;13.93;8.02;;;18.00;99.90;;;;;;5090591;28;20477;-60
2022/08/07 06:47:11;;;;;;;10.45;7.40;;;18.30;99.90;;;;;;5090500;28;20032;-60
2022/08/07 06:49:37;;;;;;;10.07;7.15;;;18.20;99.90;;;;;;5090857;28;20032;-60
2022/08/07 06:52:06;;;;;;;10.35;6.43;;;18.20;99.90;;;;;;5090518;28;20028;-60
2022/08/07 06:54:32;;;;;;;12.70;6.55;;;18.20;99.90;;;;;;5089527;28;20338;-61
2022/08/07 06:56:59;;;;;;;9.02;6.50;;;18.30;99.90;;;;;;5090880;28;20393;-60
2022/08/07 06:59:40;;;;;;;8.52;5.72;;;18.20;99.90;;;;;;5090586;28;20056;-60
2022/08/07 07:02:12;;;;;;;8.52;6.25;;;18.20;99.90;;;;;;5090776;28;20024;-60
2022/08/07 07:04:38;;;;;;;10.70;6.03;;;18.60;99.90;;;;;;5090526;28;20469;-60
2022/08/07 07:07:06;;;;;;;8.23;6.05;;;18.60;99.90;;;;;;5091193;28;20036;-62
2022/08/07 07:09:32;;;;;;;9.15;5.88;;;18.80;99.90;;;;;;5094871;28;20484;-63
2022/08/07 07:11:57;;;;;;;8.23;5.40;;;19.80;99.90;;;;;;5094422;28;20063;-63
2022/08/07 07:14:26;;;;;;;6.40;4.57;;;21.50;99.90;;;;;;5094258;28;20028;-63
2022/08/07 07:16:57;;;;;;;8.05;4.45;;;23.10;99.90;;;;;;5094740;28;20036;-62
2022/08/07 07:19:29;;;;;;;4.97;3.90;;;24.20;99.90;;;;;;5094352;28;20036;-62
2022/08/07 07:21:55;;;;;;;5.43;3.97;;;25.10;97.70;;;;;;5094270;28;20042;-62
2022/08/07 07:24:21;;;;;;;7.38;4.20;;;25.80;95.00;;;;;;5093954;28;20111;-62
2022/08/07 07:26:50;;;;;;;5.60;3.50;;;25.80;94.50;;;;;;5092821;28;20040;-63
2022/08/07 07:29:18;;;;;;;5.35;3.65;;;25.80;94.10;;;;;;5094408;28;20024;-63
2022/08/07 07:31:48;;;;;;;4.88;3.42;;;26.50;92.60;;;;;;5094111;28;20331;-63
2022/08/07 07:34:21;;;;;;;5.68;3.35;;;27.10;91.70;;;;;;5094283;28;20067;-63
2022/08/07 07:36:48;;;;;;;3.58;2.97;;;27.10;90.70;;;;;;5092680;28;20652;-63
2022/08/07 07:39:16;;;;;;;5.90;3.10;;;27.20;90.10;;;;;;5094024;28;20024;-62
2022/08/07 07:41:46;;;;;;;7.45;3.10;;;26.50;90.60;;;;;;5092426;28;20154;-62
2022/08/07 07:44:15;;;;;;;3.08;2.75;;;26.60;90.70;;;;;;5093679;28;20035;-62
2022/08/07 07:46:41;;;;;;;3.70;2.90;;;27.20;88.80;;;;;;5093693;28;20520;-63
2022/08/07 07:49:09;;;;;;;4.10;2.78;;;26.70;89.20;;;;;;5093937;28;20103;-62
2022/08/07 07:51:37;;;;;;;3.75;2.60;;;26.70;89.10;;;;;;5093521;28;20070;-62
2022/08/07 07:54:05;;;;;;;3.80;2.58;;;26.40;90.30;;;;;;5093834;28;20024;-62
2022/08/07 07:56:32;;;;;;;3.35;2.60;;;26.40;90.20;;;;;;5093919;28;20039;-63
2022/08/07 07:59:03;;;;;;;4.85;2.55;;;26.90;88.20;;;;;;5093543;28;20050;-64
2022/08/07 08:01:33;;;;;;;2.78;2.40;;;27.80;85.90;;;;;;5093215;28;20055;-63
2022/08/07 08:04:02;;;;;;;2.58;2.30;;;28.00;83.90;;;;;;5093501;28;20035;-63
2022/08/07 08:06:30;;;;;;;6.13;2.60;;;27.50;84.40;;;;;;5093556;28;20527;-63
2022/08/07 08:08:57;;;;;;;3.30;2.20;;;27.00;86.30;;;;;;5093632;28;20491;-63
2022/08/07 08:11:23;;;;;;;3.92;2.40;;;27.20;85.30;;;;;;5093521;28;20488;-63
2022/08/07 08:13:49;;;;;;;3.15;2.30;;;27.10;85.00;;;;;;5093093;28;20085;-63
2022/08/07 08:16:19;;;;;;;5.05;2.75;;;27.20;84.60;;;;;;5093349;28;20032;-64
2022/08/07 08:18:47;;;;;;;2.47;2.08;;;27.10;84.90;;;;;;5093257;28;20024;-63
2022/08/07 08:27:04;;;;;;;4.13;2.42;;;29.40;75.70;;;;;;5092611;28;20089;-63
2022/08/07 08:29:35;;;;;;;4.45;2.20;;;28.20;77.70;;;;;;5092999;28;20091;-63
2022/08/07 08:32:03;;;;;;;4.00;1.90;;;27.50;79.70;;;;;;5092769;28;20439;-63
2022/08/07 08:34:32;;;;;;;3.40;1.90;;;27.40;80.70;;;;;;5092877;28;20091;-64
2022/08/07 08:37:01;;;;;;;3.60;1.92;;;27.60;80.00;;;;;;5092547;28;20047;-64
2022/08/07 08:39:28;;;;;;;2.75;2.13;;;28.20;78.40;;;;;;5092726;28;20024;-64
2022/08/07 08:42:03;;;;;;;2.95;2.47;;;28.10;78.60;;;;;;5092587;28;20396;-64
2022/08/07 08:45:30;;;;;;;3.65;1.90;;;27.80;79.10;;;;;;5092684;28;20024;-64
2022/08/07 08:48:36;;;;;;;3.85;2.38;;;28.70;76.50;;;;;;5050361;28;20104;-64
2022/08/07 08:51:31;;;;;;;3.17;2.33;;;29.40;74.40;;;;;;4971315;28;20045;-64
2022/08/07 08:54:03;;;;;;;3.55;2.75;;;29.20;76.00;;;;;;5092309;28;20103;-64
2022/08/07 08:56:34;;;;;;;4.60;2.95;;;28.80;75.50;;;;;;5092345;28;20020;-64
2022/08/07 08:59:18;;;;;;;3.95;3.00;;;28.70;76.20;;;;;;5091044;28;20032;-64
2022/08/07 09:02:08;;;;;;;3.22;2.50;;;28.40;76.80;;;;;;5092608;28;20067;-63
2022/08/07 09:04:54;;;;;;;4.18;2.47;;;28.20;76.70;;;;;;5092081;28;20459;-64
2022/08/07 09:07:48;;;;;;;6.30;2.25;;;28.60;76.10;;;;;;5091881;28;20119;-64
2022/08/07 09:10:31;;;;;;;4.60;1.92;;;29.10;74.30;;;;;;5092122;28;20444;-64
2022/08/07 09:13:12;;;;;;;3.30;2.28;;;30.00;72.00;;;;;;5091901;28;20503;-64
2022/08/07 09:16:03;;;;;;;6.57;2.60;;;30.20;70.30;;;;;;5091837;28;20369;-64
2022/08/07 09:18:53;;;;;;;4.13;2.50;;;30.10;70.50;;;;;;5092040;28;20069;-64
2022/08/07 09:21:21;;;;;;;2.92;2.28;;;29.60;70.70;;;;;;5091962;28;20031;-64
2022/08/07 09:24:02;;;;;;;4.63;2.80;;;29.20;71.40;;;;;;5091908;28;20476;-64
2022/08/07 09:26:54;;;;;;;4.82;2.80;;;28.40;73.50;;;;;;5091567;28;20028;-63
2022/08/07 09:29:40;;;;;;;5.18;2.50;;;28.20;75.20;;;;;;5091807;28;20443;-64
2022/08/07 09:32:33;;;;;;;5.13;2.83;;;28.90;73.60;;;;;;5090559;28;20035;-64
2022/08/07 09:35:17;;;;;;;8.57;3.53;;;29.60;72.00;;;;;;5091744;28;20024;-64
2022/08/07 09:38:06;;;;;;;5.07;2.30;;;31.10;68.70;;;;;;5073784;28;20104;-66
2022/08/07 09:40:58;;;;;;;4.53;2.60;;;30.80;68.40;;;;;;5091758;28;20028;-64
2022/08/07 09:43:48;;;;;;;2.95;2.40;;;30.80;68.00;;;;;;5091990;28;20063;-64
2022/08/07 09:46:32;;;;;;;3.80;2.58;;;30.60;67.70;;;;;;5091350;28;20115;-64
2022/08/07 09:49:39;;;;;;;4.63;2.35;;;31.10;66.00;;;;;;5091812;28;20062;-64
2022/08/07 09:52:11;;;;;;;4.85;2.80;;;30.60;67.00;;;;;;5091640;28;20043;-64
2022/08/07 09:54:43;;;;;;;4.03;2.28;;;30.80;66.10;;;;;;5091734;28;20027;-64
2022/08/07 09:57:44;;;;;;;4.00;2.38;;;30.70;65.80;;;;;;5091525;28;20499;-64
2022/08/07 10:00:16;;;;;;;4.95;2.72;;;31.10;65.90;;;;;;5091393;28;20062;-64
2022/08/07 10:03:15;;;;;;;3.28;2.40;;;30.50;65.10;;;;;;5091384;28;20035;-65
2022/08/07 10:05:54;;;;;;;4.00;2.25;;;31.10;63.50;;;;;;5090978;28;20046;-64
2022/08/07 10:08:38;;;;;;;3.47;1.92;;;31.30;61.90;;;;;;5091328;28;20095;-64
2022/08/07 10:11:27;;;;;;;3.55;2.80;;;31.30;62.40;;;;;;5091362;28;20020;-64
2022/08/07 10:14:08;;;;;;;3.55;2.60;;;30.90;62.10;;;;;;5091358;28;20439;-65
2022/08/07 10:16:54;;;;;;;4.43;2.50;;;31.00;62.20;;;;;;5091112;28;20067;-65
2022/08/07 10:19:28;;;;;;;5.72;2.50;;;29.80;63.80;;;;;;5091285;28;20024;-65
2022/08/07 10:22:26;;;;;;;5.30;2.55;;;30.00;64.40;;;;;;5089820;28;20505;-64
2022/08/07 10:25:24;;;;;;;3.33;2.17;;;30.50;62.00;;;;;;5090970;28;20116;-64
2022/08/07 10:28:29;;;;;;;3.72;2.50;;;30.60;60.80;;;;;;5091204;28;20528;-65
2022/08/07 10:31:16;;;;;;;3.17;2.42;;;29.90;60.40;;;;;;5090743;28;20024;-64
2022/08/07 10:33:53;;;;;;;3.63;2.72;;;29.20;64.50;;;;;;5090784;28;20067;-64
2022/08/07 10:36:57;;;;;;;4.50;2.80;;;29.20;63.10;;;;;;5090854;28;20024;-64
2022/08/07 10:39:44;;;;;;;7.03;2.28;;;29.50;63.40;;;;;;5048450;28;20035;-64
2022/08/07 10:42:25;;;;;;;5.50;1.90;;;29.60;61.90;;;;;;5048632;28;20485;-65
2022/08/07 10:44:55;;;;;;;3.15;2.10;;;30.50;59.70;;;;;;5076200;28;20035;-64
2022/08/07 10:47:36;;;;;;;4.40;2.03;;;30.50;58.90;;;;;;5094912;28;20089;-64
2022/08/07 10:50:08;;;;;;;3.20;1.98;;;30.20;59.80;;;;;;5095225;28;20047;-65
2022/08/07 10:52:57;;;;;;;3.42;1.98;;;31.40;58.60;;;;;;5094883;28;20107;-64
2022/08/07 10:55:30;;;;;;;5.90;1.95;;;31.10;59.40;;;;;;5093383;28;20036;-64
2022/08/07 10:58:12;;;;;;;2.63;1.77;;;30.90;59.00;;;;;;5093439;28;20488;-64
2022/08/07 11:01:18;;;;;;;5.55;1.92;;;30.80;59.60;;;;;;5094481;28;20064;-64
2022/08/07 11:04:10;;;;;;;3.95;1.90;;;31.50;56.70;;;;;;5028132;28;20127;-64
2022/08/07 11:06:43;;;;;;;2.83;2.00;;;31.00;56.40;;;;;;5094326;28;20065;-64
2022/08/07 11:09:15;;;;;;;4.70;1.88;;;30.30;57.70;;;;;;5093260;28;20020;-64
2022/08/07 11:11:53;;;;;;;4.50;1.90;;;30.00;59.40;;;;;;5094789;28;20035;-64
2022/08/07 11:14:29;;;;;;;5.38;2.08;;;29.90;59.60;;;;;;5094432;28;20023;-64
2022/08/07 11:16:58;;;;;;;3.63;1.83;;;30.80;57.40;;;;;;5094499;28;20076;-65
2022/08/07 11:19:32;;;;;;;1.92;1.50;;;31.40;57.10;;;;;;5094201;28;20076;-65
2022/08/07 11:22:09;;;;;;;2.92;1.92;;;31.30;57.00;;;;;;5092871;28;20408;-65
2022/08/07 11:24:50;;;;;;;3.15;1.75;;;31.70;56.60;;;;;;5094272;28;20028;-65
2022/08/07 11:27:56;;;;;;;2.38;1.60;;;31.60;56.10;;;;;;5094105;28;20043;-64
2022/08/07 11:30:38;;;;;;;3.67;2.13;;;30.20;58.00;;;;;;5088195;28;20091;-65
2022/08/07 11:33:20;;;;;;;1.60;1.45;;;29.80;57.20;;;;;;5093859;28;20023;-64
2022/08/07 11:35:53;;;;;;;;;;;30.30;57.80;;;;;;5094308;28;20446;-65
2022/08/07 11:38:31;;;;;;;4.28;1.92;;;30.20;57.60;;;;;;5094003;28;19991;-64
2022/08/07 11:41:02;;;;;;;2.97;1.67;;;30.10;57.40;;;;;;5093838;28;20036;-65
2022/08/07 11:43:41;;;;;;;5.30;1.75;;;30.70;56.30;;;;;;5094159;28;20020;-65
2022/08/07 11:46:15;;;;;;;4.90;1.70;;;31.20;56.00;;;;;;5093665;28;20040;-65
2022/08/07 11:49:08;;;;;;;6.60;1.67;;;31.60;56.90;;;;;;5093591;28;20060;-65
2022/08/07 11:51:56;;;;;;;3.42;1.65;;;31.30;56.60;;;;;;5093766;28;20046;-65
2022/08/07 11:54:52;;;;;;;1.80;1.70;;;31.30;56.40;;;;;;5092434;28;20047;-65
2022/08/07 11:57:41;;;;;;;2.25;1.40;;;31.00;55.90;;;;;;5093658;28;20056;-65
2022/08/07 12:00:18;;;;;;;3.60;1.60;;;30.90;55.50;;;;;;5093532;28;20036;-65
2022/08/07 12:02:47;;;;;;;2.47;1.40;;;30.40;55.20;;;;;;5093615;28;20357;-64
2022/08/07 12:05:24;;;;;;;3.15;1.35;;;31.00;55.20;;;;;;5093387;28;20119;-64
2022/08/07 12:08:01;;;;;;;2.25;1.40;;;32.10;53.50;;;;;;5092408;28;20035;-64
2022/08/07 12:10:36;;;;;;;3.33;1.70;;;31.60;53.80;;;;;;5093145;28;20080;-63
2022/08/07 12:13:12;;;;;;;3.05;1.70;;;30.90;54.00;;;;;;5093582;28;20350;-63
2022/08/07 12:15:51;;;;;;;2.40;1.70;;;31.10;54.10;;;;;;5093331;28;20084;-64
2022/08/07 12:18:35;;;;;;;3.00;1.38;;;31.20;53.40;;;;;;5093597;28;20031;-64
2022/08/07 12:21:33;;;;;;;2.45;1.65;;;31.30;53.10;;;;;;5093266;28;20024;-64
2022/08/07 12:24:20;;;;;;;1.77;1.25;;;31.50;52.20;;;;;;5075003;28;20119;-64
2022/08/07 12:27:07;;;;;;;3.72;1.30;;;31.70;51.70;;;;;;5093387;28;20508;-64
2022/08/07 12:29:42;;;;;;;6.43;1.90;;;32.70;51.10;;;;;;5093228;28;20020;-64
2022/08/07 12:32:23;;;;;;;2.53;1.48;;;32.40;51.20;;;;;;5092606;28;20032;-64
2022/08/07 12:34:51;;;;;;;1.77;1.63;;;31.50;51.40;;;;;;5092516;28;20077;-64
2022/08/07 12:37:18;;;;;;;2.28;1.58;;;30.70;52.90;;;;;;5092574;28;20270;-65
2022/08/07 12:39:47;;;;;;;2.10;1.63;;;31.40;52.70;;;;;;5091710;28;20099;-65
2022/08/07 12:42:17;;;;;;;1.65;1.27;;;31.70;51.70;;;;;;5092503;28;20039;-65
2022/08/07 12:44:47;;;;;;;3.13;1.55;;;31.90;51.20;;;;;;5091121;28;20115;-65
2022/08/07 12:47:19;;;;;;;2.92;1.50;;;32.60;50.90;;;;;;5092428;28;20032;-64
2022/08/07 12:49:59;;;;;;;3.00;1.33;;;32.90;50.30;;;;;;5092663;28;20394;-65
2022/08/07 12:52:34;;;;;;;2.38;1.20;;;32.70;49.40;;;;;;5092752;28;20051;-65
2022/08/07 12:55:13;;;;;;;1.48;1.20;;;31.90;49.90;;;;;;5092850;28;20377;-65
2022/08/07 12:57:41;;;;;;;1.60;1.10;;;31.90;50.50;;;;;;5092751;28;20028;-65
2022/08/07 13:00:08;;;;;;;4.03;1.02;;;32.40;49.60;;;;;;5092349;28;20050;-65
2022/08/07 13:03:06;;;;;;;1.20;0.82;;;31.90;48.90;;;;;;5092461;28;20444;-65
2022/08/07 13:06:05;;;;;;;2.30;1.25;;;31.70;48.50;;;;;;5073595;28;20504;-65
2022/08/07 13:08:50;;;;;;;1.50;1.38;;;31.60;49.20;;;;;;5092242;28;20020;-64
2022/08/07 13:11:47;;;;;;;1.50;1.20;;;31.70;49.00;;;;;;5092221;28;20097;-65
2022/08/07 13:14:47;;;;;;;2.38;1.13;;;33.10;48.20;;;;;;5091881;28;20027;-65
2022/08/07 13:17:19;;;;;;;2.42;1.40;;;33.20;48.00;;;;;;5092287;28;20103;-62
2022/08/07 13:20:17;;;;;;;1.60;1.08;;;32.10;48.20;;;;;;5092716;28;20513;-62